sensor_id;sensor_type;location;lat;lon;timestamp;pressure;altitude;pressure_sealevel;temperature;humidity
51460;BME280;37534;39.772;2.718;2023-02-12T00:01:18;103178.91;;;3.24;100.00
51460;BME280;37534;39.772;2.718;2023-02-12T00:03:44;103167.94;;;3.27;100.00
51460;BME280;37534;39.772;2.718;2023-02-12T00:06:10;103174.59;;;3.42;100.00
51460;BME280;37534;39.772;2.718;2023-02-12T00:08:36;103164.47;;;3.44;100.00
51460;BME280;37534;39.772;2.718;2023-02-12T00:11:16;103163.00;;;3.30;100.00
51460;BME280;37534;39.772;2.718;2023-02-12T00:13:42;103166.38;;;3.29;100.00
51460;BME280;37534;39.772;2.718;2023-02-12T00:16:12;103165.16;;;3.20;100.00
51460;BME280;37534;39.772;2.718;2023-02-12T00:18:38;103158.44;;;3.03;100.00
51460;BME280;37534;39.772;2.718;2023-02-12T00:21:05;103160.72;;;2.97;100.00
51460;BME280;37534;39.772;2.718;2023-02-12T00:23:33;103160.56;;;2.94;100.00
51460;BME280;37534;39.772;2.718;2023-02-12T00:25:59;103161.66;;;2.99;100.00
51460;BME280;37534;39.772;2.718;2023-02-12T00:28:25;103142.38;;;2.86;100.00
51460;BME280;37534;39.772;2.718;2023-02-12T00:30:51;103153.00;;;2.95;100.00
51460;BME280;37534;39.772;2.718;2023-02-12T00:33:17;103155.78;;;2.82;100.00
51460;BME280;37534;39.772;2.718;2023-02-12T00:35:43;103152.91;;;2.74;100.00
51460;BME280;37534;39.772;2.718;2023-02-12T00:38:08;103147.50;;;2.86;100.00
51460;BME280;37534;39.772;2.718;2023-02-12T00:40:34;103153.00;;;2.95;100.00
51460;BME280;37534;39.772;2.718;2023-02-12T00:42:59;103156.06;;;2.88;100.00
51460;BME280;37534;39.772;2.718;2023-02-12T00:45:25;103148.06;;;2.80;100.00
51460;BME280;37534;39.772;2.718;2023-02-12T00:47:50;103146.03;;;2.73;100.00
51460;BME280;37534;39.772;2.718;2023-02-12T00:50:16;103151.88;;;2.71;100.00
51460;BME280;37534;39.772;2.718;2023-02-12T00:52:42;103132.34;;;2.71;100.00
51460;BME280;37534;39.772;2.718;2023-02-12T00:55:07;103129.66;;;2.86;100.00
51460;BME280;37534;39.772;2.718;2023-02-12T00:57:33;103134.13;;;2.92;100.00
51460;BME280;37534;39.772;2.718;2023-02-12T00:59:59;103141.38;;;3.02;100.00
51460;BME280;37534;39.772;2.718;2023-02-12T01:02:24;103127.59;;;2.98;100.00
51460;BME280;37534;39.772;2.718;2023-02-12T01:04:50;103129.56;;;2.84;100.00
51460;BME280;37534;39.772;2.718;2023-02-12T01:07:16;103135.84;;;2.73;100.00
51460;BME280;37534;39.772;2.718;2023-02-12T01:09:41;103119.47;;;2.88;100.00
51460;BME280;37534;39.772;2.718;2023-02-12T01:12:07;103133.06;;;2.87;100.00
51460;BME280;37534;39.772;2.718;2023-02-12T01:14:33;103136.84;;;2.77;100.00
51460;BME280;37534;39.772;2.718;2023-02-12T01:16:58;103120.22;;;2.85;100.00
51460;BME280;37534;39.772;2.718;2023-02-12T01:19:24;103127.19;;;2.89;100.00
51460;BME280;37534;39.772;2.718;2023-02-12T01:21:49;103119.75;;;2.74;100.00
51460;BME280;37534;39.772;2.718;2023-02-12T01:24:15;103117.44;;;2.61;100.00
51460;BME280;37534;39.772;2.718;2023-02-12T01:26:41;103119.88;;;2.58;100.00
51460;BME280;37534;39.772;2.718;2023-02-12T01:29:07;103133.56;;;2.60;100.00
51460;BME280;37534;39.772;2.718;2023-02-12T01:31:35;103118.91;;;2.93;100.00
51460;BME280;37534;39.772;2.718;2023-02-12T01:34:03;103122.72;;;3.22;100.00
51460;BME280;37534;39.772;2.718;2023-02-12T01:36:29;103131.13;;;3.41;100.00
51460;BME280;37534;39.772;2.718;2023-02-12T01:38:56;103134.66;;;3.64;100.00
51460;BME280;37534;39.772;2.718;2023-02-12T01:41:31;103136.63;;;3.70;100.00
51460;BME280;37534;39.772;2.718;2023-02-12T01:44:05;103136.53;;;3.47;100.00
51460;BME280;37534;39.772;2.718;2023-02-12T01:46:31;103140.31;;;3.36;100.00
51460;BME280;37534;39.772;2.718;2023-02-12T01:48:57;103125.94;;;3.18;100.00
51460;BME280;37534;39.772;2.718;2023-02-12T01:51:23;103130.69;;;3.11;100.00
51460;BME280;37534;39.772;2.718;2023-02-12T01:53:52;103126.88;;;3.01;100.00
51460;BME280;37534;39.772;2.718;2023-02-12T01:56:19;103129.03;;;3.11;100.00
51460;BME280;37534;39.772;2.718;2023-02-12T01:58:46;103118.94;;;3.14;100.00
51460;BME280;37534;39.772;2.718;2023-02-12T02:01:19;103124.59;;;2.88;100.00
51460;BME280;37534;39.772;2.718;2023-02-12T02:03:49;103117.75;;;2.87;100.00
51460;BME280;37534;39.772;2.718;2023-02-12T02:06:23;103118.00;;;2.93;100.00
51460;BME280;37534;39.772;2.718;2023-02-12T02:08:52;103118.00;;;2.93;100.00
51460;BME280;37534;39.772;2.718;2023-02-12T02:11:19;103117.91;;;3.09;100.00
51460;BME280;37534;39.772;2.718;2023-02-12T02:14:02;103108.09;;;2.99;100.00
51460;BME280;37534;39.772;2.718;2023-02-12T02:17:41;103102.06;;;2.77;100.00
51460;BME280;37534;39.772;2.718;2023-02-12T02:35:44;103083.91;;;2.52;100.00
51460;BME280;37534;39.772;2.718;2023-02-12T02:38:38;103093.50;;;2.57;100.00
51460;BME280;37534;39.772;2.718;2023-02-12T02:41:36;103093.06;;;2.48;100.00
51460;BME280;37534;39.772;2.718;2023-02-12T02:44:18;103083.38;;;2.59;100.00
51460;BME280;37534;39.772;2.718;2023-02-12T02:46:48;103091.72;;;2.74;100.00
51460;BME280;37534;39.772;2.718;2023-02-12T02:49:23;103087.47;;;2.55;100.00
51460;BME280;37534;39.772;2.718;2023-02-12T02:51:54;103082.88;;;2.48;100.00
51460;BME280;37534;39.772;2.718;2023-02-12T02:54:48;103081.97;;;2.28;100.00
51460;BME280;37534;39.772;2.718;2023-02-12T02:57:26;103072.88;;;2.33;100.00
51460;BME280;37534;39.772;2.718;2023-02-12T03:00:02;103086.41;;;2.32;100.00
51460;BME280;37534;39.772;2.718;2023-02-12T03:02:36;103077.88;;;2.50;100.00
51460;BME280;37534;39.772;2.718;2023-02-12T03:05:08;103076.22;;;2.32;100.00
51460;BME280;37534;39.772;2.718;2023-02-12T03:07:44;103076.47;;;2.19;100.00
51460;BME280;37534;39.772;2.718;2023-02-12T03:10:42;103077.69;;;2.09;100.00
51460;BME280;37534;39.772;2.718;2023-02-12T03:13:18;103084.63;;;2.12;100.00
51460;BME280;37534;39.772;2.718;2023-02-12T03:18:19;103066.50;;;2.05;100.00
51460;BME280;37534;39.772;2.718;2023-02-12T03:20:53;103078.72;;;2.13;100.00
51460;BME280;37534;39.772;2.718;2023-02-12T03:23:25;103074.03;;;2.22;100.00
51460;BME280;37534;39.772;2.718;2023-02-12T03:25:58;103071.66;;;2.25;100.00
51460;BME280;37534;39.772;2.718;2023-02-12T03:28:30;103078.88;;;2.16;100.00
51460;BME280;37534;39.772;2.718;2023-02-12T03:31:07;103077.41;;;2.21;100.00
51460;BME280;37534;39.772;2.718;2023-02-12T03:33:43;103072.69;;;2.11;100.00
51460;BME280;37534;39.772;2.718;2023-02-12T03:36:40;103076.59;;;2.22;100.00
51460;BME280;37534;39.772;2.718;2023-02-12T03:39:22;103067.94;;;2.00;100.00
51460;BME280;37534;39.772;2.718;2023-02-12T03:41:59;103060.38;;;2.02;100.00
51460;BME280;37534;39.772;2.718;2023-02-12T03:47:56;103067.31;;;2.04;100.00
51460;BME280;37534;39.772;2.718;2023-02-12T03:50:15;103059.22;;;1.95;100.00
51460;BME280;37534;39.772;2.718;2023-02-12T03:52:42;103066.06;;;2.14;100.00
51460;BME280;37534;39.772;2.718;2023-02-12T03:55:08;103062.50;;;1.93;100.00
51460;BME280;37534;39.772;2.718;2023-02-12T03:57:40;103075.06;;;1.89;100.00
51460;BME280;37534;39.772;2.718;2023-02-12T04:00:11;103074.06;;;1.86;100.00
51460;BME280;37534;39.772;2.718;2023-02-12T04:02:38;103065.19;;;1.78;100.00
51460;BME280;37534;39.772;2.718;2023-02-12T04:05:05;103064.47;;;1.98;100.00
51460;BME280;37534;39.772;2.718;2023-02-12T04:07:32;103045.38;;;1.90;100.00
51460;BME280;37534;39.772;2.718;2023-02-12T04:09:59;103071.75;;;1.73;100.00
51460;BME280;37534;39.772;2.718;2023-02-12T04:12:38;103064.59;;;1.65;100.00
51460;BME280;37534;39.772;2.718;2023-02-12T04:20:32;103065.25;;;1.61;100.00
51460;BME280;37534;39.772;2.718;2023-02-12T04:23:15;103065.75;;;1.54;100.00
51460;BME280;37534;39.772;2.718;2023-02-12T04:33:59;103070.66;;;1.51;100.00
51460;BME280;37534;39.772;2.718;2023-02-12T04:36:34;103073.63;;;1.77;100.00
51460;BME280;37534;39.772;2.718;2023-02-12T04:39:08;103062.19;;;1.68;100.00
51460;BME280;37534;39.772;2.718;2023-02-12T04:41:36;103068.72;;;1.63;100.00
51460;BME280;37534;39.772;2.718;2023-02-12T04:44:17;103063.19;;;1.54;100.00
51460;BME280;37534;39.772;2.718;2023-02-12T04:46:42;103057.66;;;1.45;100.00
51460;BME280;37534;39.772;2.718;2023-02-12T04:49:15;103053.94;;;1.38;100.00
51460;BME280;37534;39.772;2.718;2023-02-12T04:51:42;103068.69;;;1.62;100.00
51460;BME280;37534;39.772;2.718;2023-02-12T04:54:08;103059.28;;;1.61;100.00
51460;BME280;37534;39.772;2.718;2023-02-12T04:56:34;103060.81;;;1.57;100.00
51460;BME280;37534;39.772;2.718;2023-02-12T04:59:00;103063.50;;;1.60;100.00
51460;BME280;37534;39.772;2.718;2023-02-12T05:01:25;103063.16;;;1.36;100.00
51460;BME280;37534;39.772;2.718;2023-02-12T05:03:51;103062.22;;;1.34;100.00
51460;BME280;37534;39.772;2.718;2023-02-12T05:06:17;103068.91;;;1.32;100.00
51460;BME280;37534;39.772;2.718;2023-02-12T05:08:43;103070.22;;;1.42;100.00
51460;BME280;37534;39.772;2.718;2023-02-12T05:11:10;103077.84;;;1.58;100.00
51460;BME280;37534;39.772;2.718;2023-02-12T05:13:37;103078.50;;;1.38;100.00
51460;BME280;37534;39.772;2.718;2023-02-12T05:16:06;103071.03;;;1.24;100.00
51460;BME280;37534;39.772;2.718;2023-02-12T05:18:33;103066.88;;;1.43;100.00
51460;BME280;37534;39.772;2.718;2023-02-12T05:21:01;103064.38;;;1.26;100.00
51460;BME280;37534;39.772;2.718;2023-02-12T05:23:32;103048.66;;;1.17;100.00
51460;BME280;37534;39.772;2.718;2023-02-12T05:25:59;103078.66;;;1.41;100.00
51460;BME280;37534;39.772;2.718;2023-02-12T05:28:26;103079.84;;;1.31;100.00
51460;BME280;37534;39.772;2.718;2023-02-12T05:30:51;103070.25;;;1.25;100.00
51460;BME280;37534;39.772;2.718;2023-02-12T05:33:17;103075.25;;;1.24;100.00
51460;BME280;37534;39.772;2.718;2023-02-12T05:35:42;103073.22;;;1.17;100.00
51460;BME280;37534;39.772;2.718;2023-02-12T05:38:08;103065.25;;;1.27;100.00
51460;BME280;37534;39.772;2.718;2023-02-12T05:40:34;103085.47;;;1.42;100.00
51460;BME280;37534;39.772;2.718;2023-02-12T05:43:00;103075.19;;;1.22;100.00
51460;BME280;37534;39.772;2.718;2023-02-12T05:45:27;103084.88;;;1.13;100.00
51460;BME280;37534;39.772;2.718;2023-02-12T05:47:56;103081.41;;;1.11;100.00
51460;BME280;37534;39.772;2.718;2023-02-12T05:50:22;103083.47;;;1.02;100.00
51460;BME280;37534;39.772;2.718;2023-02-12T05:52:48;103076.25;;;0.93;100.00
51460;BME280;37534;39.772;2.718;2023-02-12T05:55:13;103087.28;;;0.93;100.00
51460;BME280;37534;39.772;2.718;2023-02-12T05:57:39;103090.84;;;1.13;100.00
51460;BME280;37534;39.772;2.718;2023-02-12T06:00:06;103094.13;;;1.11;100.00
51460;BME280;37534;39.772;2.718;2023-02-12T06:02:35;103096.09;;;1.17;100.00
51460;BME280;37534;39.772;2.718;2023-02-12T06:05:01;103088.69;;;1.05;100.00
51460;BME280;37534;39.772;2.718;2023-02-12T06:07:27;103090.78;;;0.95;100.00
51460;BME280;37534;39.772;2.718;2023-02-12T06:09:52;103085.56;;;0.92;100.00
51460;BME280;37534;39.772;2.718;2023-02-12T06:12:20;103100.16;;;0.97;100.00
51460;BME280;37534;39.772;2.718;2023-02-12T06:14:45;103080.78;;;0.99;100.00
51460;BME280;37534;39.772;2.718;2023-02-12T06:17:11;103100.31;;;1.16;100.00
51460;BME280;37534;39.772;2.718;2023-02-12T06:19:37;103097.34;;;1.08;100.00
51460;BME280;37534;39.772;2.718;2023-02-12T06:22:02;103095.84;;;0.95;100.00
51460;BME280;37534;39.772;2.718;2023-02-12T06:24:28;103096.97;;;1.17;100.00
51460;BME280;37534;39.772;2.718;2023-02-12T06:26:53;103101.56;;;1.08;100.00
51460;BME280;37534;39.772;2.718;2023-02-12T06:29:20;103110.63;;;1.03;100.00
51460;BME280;37534;39.772;2.718;2023-02-12T06:31:46;103103.81;;;1.02;100.00
51460;BME280;37534;39.772;2.718;2023-02-12T06:34:12;103116.25;;;1.13;100.00
51460;BME280;37534;39.772;2.718;2023-02-12T06:36:41;103114.84;;;1.02;100.00
51460;BME280;37534;39.772;2.718;2023-02-12T06:39:09;103103.09;;;0.88;100.00
51460;BME280;37534;39.772;2.718;2023-02-12T06:41:35;103109.13;;;0.90;100.00
51460;BME280;37534;39.772;2.718;2023-02-12T06:44:02;103110.00;;;0.90;100.00
51460;BME280;37534;39.772;2.718;2023-02-12T06:46:27;103121.13;;;1.09;100.00
51460;BME280;37534;39.772;2.718;2023-02-12T06:48:54;103125.19;;;1.05;100.00
51460;BME280;37534;39.772;2.718;2023-02-12T06:51:21;103125.41;;;0.93;100.00
51460;BME280;37534;39.772;2.718;2023-02-12T06:53:48;103098.00;;;0.71;100.00
51460;BME280;37534;39.772;2.718;2023-02-12T06:56:14;103104.59;;;1.01;100.00
51460;BME280;37534;39.772;2.718;2023-02-12T06:58:42;103117.09;;;0.96;100.00
51460;BME280;37534;39.772;2.718;2023-02-12T07:03:41;103122.09;;;1.11;100.00
51460;BME280;37534;39.772;2.718;2023-02-12T07:06:09;103131.59;;;1.15;100.00
51460;BME280;37534;39.772;2.718;2023-02-12T07:08:35;103114.22;;;1.06;100.00
51460;BME280;37534;39.772;2.718;2023-02-12T07:11:01;103118.28;;;1.19;100.00
51460;BME280;37534;39.772;2.718;2023-02-12T07:13:26;103123.91;;;1.13;100.00
51460;BME280;37534;39.772;2.718;2023-02-12T07:15:52;103123.81;;;1.28;100.00
51460;BME280;37534;39.772;2.718;2023-02-12T07:18:17;103128.25;;;1.32;100.00
51460;BME280;37534;39.772;2.718;2023-02-12T07:20:43;103119.78;;;1.32;100.00
51460;BME280;37534;39.772;2.718;2023-02-12T07:23:12;103120.16;;;1.23;100.00
51460;BME280;37534;39.772;2.718;2023-02-12T07:25:37;103128.03;;;1.28;100.00
51460;BME280;37534;39.772;2.718;2023-02-12T07:28:03;103131.03;;;1.21;100.00
51460;BME280;37534;39.772;2.718;2023-02-12T07:30:28;103126.84;;;1.21;100.00
51460;BME280;37534;39.772;2.718;2023-02-12T07:32:54;103136.38;;;1.25;100.00
51460;BME280;37534;39.772;2.718;2023-02-12T07:35:20;103141.06;;;1.34;100.00
51460;BME280;37534;39.772;2.718;2023-02-12T07:37:45;103142.88;;;1.37;100.00
51460;BME280;37534;39.772;2.718;2023-02-12T07:40:11;103137.66;;;1.33;100.00
51460;BME280;37534;39.772;2.718;2023-02-12T07:42:36;103145.34;;;1.51;100.00
51460;BME280;37534;39.772;2.718;2023-02-12T07:45:02;103145.72;;;1.59;100.00
51460;BME280;37534;39.772;2.718;2023-02-12T07:47:28;103145.50;;;1.55;100.00
51460;BME280;37534;39.772;2.718;2023-02-12T07:49:53;103145.25;;;1.50;100.00
51460;BME280;37534;39.772;2.718;2023-02-12T07:52:19;103134.50;;;1.56;100.00
51460;BME280;37534;39.772;2.718;2023-02-12T07:54:46;103144.66;;;1.72;100.00
51460;BME280;37534;39.772;2.718;2023-02-12T07:57:11;103144.53;;;1.69;100.00
51460;BME280;37534;39.772;2.718;2023-02-12T07:59:37;103142.09;;;1.72;100.00
51460;BME280;37534;39.772;2.718;2023-02-12T08:02:03;103137.00;;;1.72;100.00
51460;BME280;37534;39.772;2.718;2023-02-12T08:04:28;103140.31;;;1.87;100.00
51460;BME280;37534;39.772;2.718;2023-02-12T08:06:55;103143.72;;;1.88;100.00
51460;BME280;37534;39.772;2.718;2023-02-12T08:09:24;103152.13;;;2.03;100.00
51460;BME280;37534;39.772;2.718;2023-02-12T08:11:50;103143.09;;;1.92;100.00
51460;BME280;37534;39.772;2.718;2023-02-12T08:14:18;103145.16;;;1.99;100.00
51460;BME280;37534;39.772;2.718;2023-02-12T08:16:44;103147.81;;;2.02;100.00
51460;BME280;37534;39.772;2.718;2023-02-12T08:19:11;103162.84;;;2.14;100.00
51460;BME280;37534;39.772;2.718;2023-02-12T08:21:37;103156.38;;;2.21;100.00
51460;BME280;37534;39.772;2.718;2023-02-12T08:24:03;103153.22;;;2.26;100.00
51460;BME280;37534;39.772;2.718;2023-02-12T08:26:33;103167.34;;;2.38;100.00
51460;BME280;37534;39.772;2.718;2023-02-12T08:31:31;103157.00;;;2.53;100.00
51460;BME280;37534;39.772;2.718;2023-02-12T08:33:57;103166.88;;;3.41;100.00
51460;BME280;37534;39.772;2.718;2023-02-12T08:36:25;103163.47;;;5.39;100.00
51460;BME280;37534;39.772;2.718;2023-02-12T08:38:51;103176.28;;;6.71;100.00
51460;BME280;37534;39.772;2.718;2023-02-12T08:41:22;103178.81;;;8.71;100.00
51460;BME280;37534;39.772;2.718;2023-02-12T08:43:49;103181.91;;;11.12;100.00
51460;BME280;37534;39.772;2.718;2023-02-12T08:46:30;103186.91;;;13.48;84.84
51460;BME280;37534;39.772;2.718;2023-02-12T08:48:59;103179.75;;;12.77;68.68
51460;BME280;37534;39.772;2.718;2023-02-12T08:51:30;103162.69;;;13.43;72.94
51460;BME280;37534;39.772;2.718;2023-02-12T08:54:00;103180.56;;;15.05;65.96
51460;BME280;37534;39.772;2.718;2023-02-12T08:56:27;103168.81;;;16.59;58.83
51460;BME280;37534;39.772;2.718;2023-02-12T08:58:55;103171.00;;;18.07;52.15
51460;BME280;37534;39.772;2.718;2023-02-12T09:01:23;103172.19;;;19.19;48.57
51460;BME280;37534;39.772;2.718;2023-02-12T09:03:49;103158.91;;;20.30;44.44
51460;BME280;37534;39.772;2.718;2023-02-12T09:06:17;103172.56;;;21.30;41.79
51460;BME280;37534;39.772;2.718;2023-02-12T09:08:47;103173.34;;;22.37;39.95
51460;BME280;37534;39.772;2.718;2023-02-12T09:11:18;103163.81;;;22.80;37.67
51460;BME280;37534;39.772;2.718;2023-02-12T09:13:45;103176.13;;;23.46;37.46
51460;BME280;37534;39.772;2.718;2023-02-12T09:16:12;103164.53;;;24.12;36.75
51460;BME280;37534;39.772;2.718;2023-02-12T09:18:38;103173.47;;;25.04;35.26
51460;BME280;37534;39.772;2.718;2023-02-12T09:21:10;103174.94;;;25.98;30.80
51460;BME280;37534;39.772;2.718;2023-02-12T09:23:36;103177.00;;;26.09;31.40
51460;BME280;37534;39.772;2.718;2023-02-12T09:26:04;103175.19;;;26.43;32.02
51460;BME280;37534;39.772;2.718;2023-02-12T09:28:30;103172.16;;;26.51;29.32
51460;BME280;37534;39.772;2.718;2023-02-12T09:30:55;103182.56;;;26.70;29.88
51460;BME280;37534;39.772;2.718;2023-02-12T09:33:21;103180.31;;;27.26;29.94
51460;BME280;37534;39.772;2.718;2023-02-12T09:35:47;103179.53;;;27.24;29.34
51460;BME280;37534;39.772;2.718;2023-02-12T09:38:13;103178.44;;;27.28;27.58
51460;BME280;37534;39.772;2.718;2023-02-12T09:46:12;103161.94;;;24.49;31.17
51460;BME280;37534;39.772;2.718;2023-02-12T09:48:48;103173.53;;;25.74;30.78
51460;BME280;37534;39.772;2.718;2023-02-12T09:51:18;103179.78;;;25.73;28.77
51460;BME280;37534;39.772;2.718;2023-02-12T09:53:45;103170.13;;;25.00;29.51
51460;BME280;37534;39.772;2.718;2023-02-12T09:56:17;103177.44;;;25.49;29.17
51460;BME280;37534;39.772;2.718;2023-02-12T09:58:51;103175.34;;;26.24;28.63
51460;BME280;37534;39.772;2.718;2023-02-12T10:01:19;103167.81;;;27.58;27.10
51460;BME280;37534;39.772;2.718;2023-02-12T10:03:47;103172.72;;;28.38;25.28
51460;BME280;37534;39.772;2.718;2023-02-12T10:06:16;103183.63;;;28.19;25.70
51460;BME280;37534;39.772;2.718;2023-02-12T10:16:39;103176.34;;;29.06;23.88
51460;BME280;37534;39.772;2.718;2023-02-12T10:24:37;103173.38;;;28.27;25.07
51460;BME280;37534;39.772;2.718;2023-02-12T10:27:13;103179.88;;;28.92;24.36
51460;BME280;37534;39.772;2.718;2023-02-12T10:29:40;103180.66;;;29.87;22.74
51460;BME280;37534;39.772;2.718;2023-02-12T10:32:24;103181.59;;;30.11;21.59
51460;BME280;37534;39.772;2.718;2023-02-12T10:34:51;103176.25;;;29.60;22.00
51460;BME280;37534;39.772;2.718;2023-02-12T10:37:25;103174.97;;;30.67;22.37
51460;BME280;37534;39.772;2.718;2023-02-12T10:39:57;103166.13;;;31.15;21.80
51460;BME280;37534;39.772;2.718;2023-02-12T10:42:42;103154.22;;;30.83;21.46
51460;BME280;37534;39.772;2.718;2023-02-12T10:45:19;103161.13;;;30.25;21.15
51460;BME280;37534;39.772;2.718;2023-02-12T10:47:46;103162.06;;;30.74;21.25
51460;BME280;37534;39.772;2.718;2023-02-12T10:50:27;103161.66;;;31.15;21.61
51460;BME280;37534;39.772;2.718;2023-02-12T10:52:57;103165.91;;;31.98;20.34
51460;BME280;37534;39.772;2.718;2023-02-12T10:55:32;103164.75;;;32.69;19.41
51460;BME280;37534;39.772;2.718;2023-02-12T10:57:59;103161.63;;;31.04;19.81
51460;BME280;37534;39.772;2.718;2023-02-12T11:00:33;103168.19;;;31.11;20.21
51460;BME280;37534;39.772;2.718;2023-02-12T11:03:17;103162.94;;;31.45;20.21
51460;BME280;37534;39.772;2.718;2023-02-12T11:05:44;103152.09;;;31.93;19.79
51460;BME280;37534;39.772;2.718;2023-02-12T11:08:32;103163.00;;;32.01;19.70
51460;BME280;37534;39.772;2.718;2023-02-12T11:11:14;103157.19;;;31.74;19.10
51460;BME280;37534;39.772;2.718;2023-02-12T11:13:46;103146.25;;;31.54;19.36
51460;BME280;37534;39.772;2.718;2023-02-12T11:16:35;103152.41;;;31.08;20.42
51460;BME280;37534;39.772;2.718;2023-02-12T11:19:07;103152.41;;;31.55;19.08
51460;BME280;37534;39.772;2.718;2023-02-12T11:21:33;103149.09;;;30.80;19.97
51460;BME280;37534;39.772;2.718;2023-02-12T11:26:50;103141.50;;;30.87;20.14
51460;BME280;37534;39.772;2.718;2023-02-12T11:29:22;103131.03;;;30.73;19.91
51460;BME280;37534;39.772;2.718;2023-02-12T11:32:05;103125.81;;;31.31;19.64
51460;BME280;37534;39.772;2.718;2023-02-12T11:34:35;103137.94;;;31.35;19.89
51460;BME280;37534;39.772;2.718;2023-02-12T11:37:01;103123.78;;;30.99;19.64
51460;BME280;37534;39.772;2.718;2023-02-12T11:39:33;103126.75;;;31.18;19.35
51460;BME280;37534;39.772;2.718;2023-02-12T11:42:21;103120.41;;;30.97;19.69
51460;BME280;37534;39.772;2.718;2023-02-12T11:44:51;103117.00;;;30.82;20.26
51460;BME280;37534;39.772;2.718;2023-02-12T11:47:26;103113.22;;;31.44;19.79
51460;BME280;37534;39.772;2.718;2023-02-12T11:50:03;103121.84;;;30.16;19.91
51460;BME280;37534;39.772;2.718;2023-02-12T11:52:32;103109.88;;;31.06;20.10
51460;BME280;37534;39.772;2.718;2023-02-12T11:55:18;103107.91;;;32.12;19.01
51460;BME280;37534;39.772;2.718;2023-02-12T11:57:47;103104.25;;;31.45;19.23
51460;BME280;37534;39.772;2.718;2023-02-12T12:00:35;103099.66;;;31.58;18.88
51460;BME280;37534;39.772;2.718;2023-02-12T12:06:03;103103.44;;;31.67;18.47
51460;BME280;37534;39.772;2.718;2023-02-12T12:11:25;103093.34;;;30.29;19.61
51460;BME280;37534;39.772;2.718;2023-02-12T12:14:00;103088.41;;;30.48;20.21
51460;BME280;37534;39.772;2.718;2023-02-12T12:16:35;103090.72;;;31.82;19.11
51460;BME280;37534;39.772;2.718;2023-02-12T12:19:27;103095.13;;;30.89;19.43
51460;BME280;37534;39.772;2.718;2023-02-12T12:22:30;103085.63;;;28.97;21.39
51460;BME280;37534;39.772;2.718;2023-02-12T12:25:09;103081.75;;;31.02;19.93
51460;BME280;37534;39.772;2.718;2023-02-12T12:27:48;103080.72;;;29.44;20.54
51460;BME280;37534;39.772;2.718;2023-02-12T12:35:51;103069.66;;;29.37;21.19
51460;BME280;37534;39.772;2.718;2023-02-12T12:41:01;103060.66;;;28.33;21.83
51460;BME280;37534;39.772;2.718;2023-02-12T12:46:39;103065.00;;;30.04;21.49
51460;BME280;37534;39.772;2.718;2023-02-12T12:49:39;103064.69;;;30.45;20.46
51460;BME280;37534;39.772;2.718;2023-02-12T12:55:15;103050.28;;;31.87;19.67
51460;BME280;37534;39.772;2.718;2023-02-12T13:00:54;103050.13;;;31.09;20.62
51460;BME280;37534;39.772;2.718;2023-02-12T13:09:00;103052.06;;;31.07;20.45
51460;BME280;37534;39.772;2.718;2023-02-12T13:11:39;103058.41;;;31.85;19.93
51460;BME280;37534;39.772;2.718;2023-02-12T13:19:54;103043.09;;;30.97;20.66
51460;BME280;37534;39.772;2.718;2023-02-12T13:25:15;103031.25;;;31.46;20.48
51460;BME280;37534;39.772;2.718;2023-02-12T13:27:45;103030.94;;;30.93;20.73
51460;BME280;37534;39.772;2.718;2023-02-12T13:35:19;103025.84;;;30.30;21.00
51460;BME280;37534;39.772;2.718;2023-02-12T13:37:48;103031.19;;;30.89;20.90
51460;BME280;37534;39.772;2.718;2023-02-12T13:40:24;103030.50;;;30.39;20.94
51460;BME280;37534;39.772;2.718;2023-02-12T13:42:57;103026.69;;;30.55;21.23
51460;BME280;37534;39.772;2.718;2023-02-12T13:46:03;103027.16;;;30.24;21.24
51460;BME280;37534;39.772;2.718;2023-02-12T13:56:54;103021.56;;;28.35;22.98
51460;BME280;37534;39.772;2.718;2023-02-12T14:02:23;103028.00;;;28.03;23.33
51460;BME280;37534;39.772;2.718;2023-02-12T14:04:56;103017.91;;;27.96;23.58
51460;BME280;37534;39.772;2.718;2023-02-12T14:07:45;103016.84;;;28.80;22.90
51460;BME280;37534;39.772;2.718;2023-02-12T14:10:26;103004.31;;;28.95;22.80
51460;BME280;37534;39.772;2.718;2023-02-12T14:12:57;103010.41;;;28.30;22.83
51460;BME280;37534;39.772;2.718;2023-02-12T14:15:35;103009.09;;;28.50;22.58
51460;BME280;37534;39.772;2.718;2023-02-12T14:20:33;103010.69;;;27.83;23.29
51460;BME280;37534;39.772;2.718;2023-02-12T14:23:25;103012.31;;;27.57;24.06
51460;BME280;37534;39.772;2.718;2023-02-12T14:33:46;103001.16;;;26.93;24.35
51460;BME280;37534;39.772;2.718;2023-02-12T14:41:26;103007.88;;;27.72;24.40
51460;BME280;37534;39.772;2.718;2023-02-12T14:54:49;102995.66;;;25.38;26.59
51460;BME280;37534;39.772;2.718;2023-02-12T15:00:00;103003.06;;;25.14;27.08
51460;BME280;37534;39.772;2.718;2023-02-12T15:02:31;103010.56;;;24.87;27.42
51460;BME280;37534;39.772;2.718;2023-02-12T15:05:03;102997.44;;;25.20;26.64
51460;BME280;37534;39.772;2.718;2023-02-12T15:07:39;102996.84;;;24.80;27.96
51460;BME280;37534;39.772;2.718;2023-02-12T15:10:15;102989.66;;;25.17;27.17
51460;BME280;37534;39.772;2.718;2023-02-12T15:12:46;102982.56;;;23.73;27.92
51460;BME280;37534;39.772;2.718;2023-02-12T15:18:28;102992.63;;;24.03;28.52
51460;BME280;37534;39.772;2.718;2023-02-12T15:21:21;102989.19;;;22.81;29.82
51460;BME280;37534;39.772;2.718;2023-02-12T15:23:56;102994.16;;;22.67;29.91
51460;BME280;37534;39.772;2.718;2023-02-12T15:26:23;102990.25;;;22.97;29.42
51460;BME280;37534;39.772;2.718;2023-02-12T15:28:52;102981.84;;;22.23;30.52
51460;BME280;37534;39.772;2.718;2023-02-12T15:31:36;102985.19;;;22.50;30.68
51460;BME280;37534;39.772;2.718;2023-02-12T15:34:02;102985.38;;;22.22;30.96
51460;BME280;37534;39.772;2.718;2023-02-12T15:36:30;102979.50;;;22.39;31.01